Aspen Park, Colorado
Current Conditions -  °F | °C
As of 7:53 AM on Friday 19 Dec 2014 (Local Time) from KAPA Reporting Station
Few Clouds Few Clouds  
Wind Chill: 21°   Ceiling: Unl
Heat Index: 21°   Visibility: 10mi
Dew Point: 16°   Wind: 3mph
Humidity: 81%   Direction: 150°SSE
Pressure: 30.09"   Gusts: NA
Location:  39.4975°N, 105.289°W
Report Text: KAPA 191453Z 15003KT 10SM FEW080 FEW180 M06/M09 A3009 RMK AO2 SLP236 T10611089 50010
Loading
Personal Weather Stations






























Interactive Weather Map New forecast layout! Learn more

10-Day Weather Forecast

Advertisements
Track Severe Weather on mobile